<?xml version='1.0' encoding='UTF-8'?><gpx version="1.1" creator="JPX - https://github.com/jenetics/jpx" xmlns="http://www.topografix.com/GPX/1/1"><trk><trkseg><trkpt lat="39.36025377882786" lon="16.03855678441332"><ele>54.99999999999999</ele><time>2026-03-27T11:22:17Z</time></trkpt><trkpt lat="39.36020954855031" lon="16.038634994350186"><ele>55.0</ele><time>2026-03-27T11:22:22Z</time></trkpt><trkpt lat="39.36015991720886" lon="16.038691070645495"><ele>55.0</ele><time>2026-03-27T11:22:37Z</time></trkpt><trkpt lat="39.3601267747968" lon="16.038764983607873"><ele>55.0</ele><time>2026-03-27T11:22:48Z</time></trkpt><trkpt lat="39.360079912254356" lon="16.038842712963724"><ele>55.0</ele><time>2026-03-27T11:22:50Z</time></trkpt><trkpt lat="39.360028549554855" lon="16.038926706294447"><ele>54.99999999999999</ele><time>2026-03-27T11:22:52Z</time></trkpt><trkpt lat="39.359989401949285" lon="16.038993178618377"><ele>55.0</ele><time>2026-03-27T11:22:54Z</time></trkpt><trkpt lat="39.35994247468164" lon="16.039069490911118"><ele>55.6</ele><time>2026-03-27T11:22:57Z</time></trkpt><trkpt lat="39.35989004596614" lon="16.039154618191326"><ele>56.2</ele><time>2026-03-27T11:23:00Z</time></trkpt><trkpt lat="39.35985571708669" lon="16.039235426137978"><ele>56.8</ele><time>2026-03-27T11:23:05Z</time></trkpt><trkpt lat="39.35992584482232" lon="16.039379908722463"><ele>57.4</ele><time>2026-03-27T11:23:09Z</time></trkpt><trkpt lat="39.360001028100974" lon="16.039434974872904"><ele>58.0</ele><time>2026-03-27T11:23:11Z</time></trkpt><trkpt lat="39.36006401805662" lon="16.03949262262127"><ele>57.99999999999999</ele><time>2026-03-27T11:23:13Z</time></trkpt><trkpt lat="39.360102096275874" lon="16.039566086781054"><ele>58.0</ele><time>2026-03-27T11:23:15Z</time></trkpt><trkpt lat="39.360145300896235" lon="16.039628043068713"><ele>58.0</ele><time>2026-03-27T11:23:17Z</time></trkpt><trkpt lat="39.36016949562746" lon="16.039711968056626"><ele>58.0</ele><time>2026-03-27T11:23:19Z</time></trkpt><trkpt lat="39.36019019246059" lon="16.039808984620265"><ele>57.99999999999999</ele><time>2026-03-27T11:23:20.999Z</time></trkpt><trkpt lat="39.36018840207528" lon="16.03991788388864"><ele>58.0</ele><time>2026-03-27T11:23:22.999Z</time></trkpt><trkpt lat="39.360180068152694" lon="16.040038949008004"><ele>58.666666666666664</ele><time>2026-03-27T11:23:24.999Z</time></trkpt><trkpt lat="39.360170479451114" lon="16.04016517545399"><ele>59.33333333333333</ele><time>2026-03-27T11:23:26.999Z</time></trkpt><trkpt lat="39.3601639152634" lon="16.040281166214093"><ele>60.0</ele><time>2026-03-27T11:23:28.999Z</time></trkpt><trkpt lat="39.36015041005935" lon="16.040393445590205"><ele>60.66666666666667</ele><time>2026-03-27T11:23:31Z</time></trkpt><trkpt lat="39.36013947729137" lon="16.040482392713187"><ele>61.333333333333336</ele><time>2026-03-27T11:23:33Z</time></trkpt><trkpt lat="39.36013105605547" lon="16.040584429497294"><ele>62.0</ele><time>2026-03-27T11:23:35Z</time></trkpt><trkpt lat="39.36012287973608" lon="16.04067173604196"><ele>62.00000000000001</ele><time>2026-03-27T11:23:37Z</time></trkpt><trkpt lat="39.360114496266156" lon="16.040753369513993"><ele>62.0</ele><time>2026-03-27T11:23:45Z</time></trkpt><trkpt lat="39.36010857615662" lon="16.04084382656545"><ele>62.0</ele><time>2026-03-27T11:23:49Z</time></trkpt><trkpt lat="39.36009236725733" lon="16.040930505776775"><ele>62.0</ele><time>2026-03-27T11:23:52Z</time></trkpt><trkpt lat="39.360081997522364" lon="16.041014568923178"><ele>62.00000000000001</ele><time>2026-03-27T11:23:56Z</time></trkpt><trkpt lat="39.36015470494742" lon="16.04108825426554"><ele>62.0</ele><time>2026-03-27T11:24:02Z</time></trkpt><trkpt lat="39.36024683265968" lon="16.041079099027257"><ele>63.0</ele><time>2026-03-27T11:24:04Z</time></trkpt><trkpt lat="39.36032780919058" lon="16.04107861097555"><ele>64.0</ele><time>2026-03-27T11:24:06Z</time></trkpt><trkpt lat="39.36042031772152" lon="16.041026366051184"><ele>65.0</ele><time>2026-03-27T11:24:08Z</time></trkpt><trkpt lat="39.360508956353705" lon="16.04097028486125"><ele>66.0</ele><time>2026-03-27T11:24:10Z</time></trkpt><trkpt lat="39.36058281464126" lon="16.040901074677752"><ele>67.0</ele><time>2026-03-27T11:24:12Z</time></trkpt><trkpt lat="39.36066129379941" lon="16.040826558623305"><ele>67.4</ele><time>2026-03-27T11:24:14Z</time></trkpt><trkpt lat="39.36074008095311" lon="16.040753837549275"><ele>67.80000000000001</ele><time>2026-03-27T11:24:16Z</time></trkpt><trkpt lat="39.360828926895195" lon="16.04066411247558"><ele>68.2</ele><time>2026-03-27T11:24:18Z</time></trkpt><trkpt lat="39.36087585391368" lon="16.04058989073704"><ele>68.60000000000001</ele><time>2026-03-27T11:24:19Z</time></trkpt><trkpt lat="39.36097129307026" lon="16.040489756197914"><ele>69.0</ele><time>2026-03-27T11:24:21Z</time></trkpt><trkpt lat="39.36102312207065" lon="16.040430400230413"><ele>69.0</ele><time>2026-03-27T11:24:22Z</time></trkpt><trkpt lat="39.36108104510249" lon="16.04038077776704"><ele>69.0</ele><time>2026-03-27T11:24:23Z</time></trkpt><trkpt lat="39.36114200598882" lon="16.04033124752853"><ele>69.0</ele><time>2026-03-27T11:24:24Z</time></trkpt><trkpt lat="39.36119829845468" lon="16.040285504726505"><ele>69.0</ele><time>2026-03-27T11:24:25Z</time></trkpt><trkpt lat="39.36130997128817" lon="16.04020939542139"><ele>69.0</ele><time>2026-03-27T11:24:27Z</time></trkpt><trkpt lat="39.361420246515195" lon="16.040129558203784"><ele>69.85714285714286</ele><time>2026-03-27T11:24:29Z</time></trkpt><trkpt lat="39.361474044875386" lon="16.04008681977198"><ele>70.71428571428572</ele><time>2026-03-27T11:24:30Z</time></trkpt><trkpt lat="39.36153085681158" lon="16.040046559028983"><ele>71.57142857142857</ele><time>2026-03-27T11:24:31Z</time></trkpt><trkpt lat="39.36158723165926" lon="16.040005428638466"><ele>72.42857142857143</ele><time>2026-03-27T11:24:32Z</time></trkpt><trkpt lat="39.36164710678149" lon="16.039958315594347"><ele>73.28571428571428</ele><time>2026-03-27T11:24:33Z</time></trkpt><trkpt lat="39.36170898889118" lon="16.03991349692759"><ele>74.14285714285714</ele><time>2026-03-27T11:24:34Z</time></trkpt><trkpt lat="39.36177063835203" lon="16.03986932218006"><ele>75.0</ele><time>2026-03-27T11:24:35Z</time></trkpt><trkpt lat="39.36183745243439" lon="16.039819619981163"><ele>74.99999999999999</ele><time>2026-03-27T11:24:36Z</time></trkpt><trkpt lat="39.36189934937291" lon="16.039772025149713"><ele>75.0</ele><time>2026-03-27T11:24:37Z</time></trkpt><trkpt lat="39.36195717045632" lon="16.03972798772237"><ele>75.0</ele><time>2026-03-27T11:24:38Z</time></trkpt><trkpt lat="39.362018168475615" lon="16.03968040703679"><ele>75.0</ele><time>2026-03-27T11:24:39Z</time></trkpt><trkpt lat="39.36207639619722" lon="16.03963452049761"><ele>75.0</ele><time>2026-03-27T11:24:40Z</time></trkpt><trkpt lat="39.36213714426615" lon="16.039586552852356"><ele>74.99999999999999</ele><time>2026-03-27T11:24:41Z</time></trkpt><trkpt lat="39.362202152126" lon="16.03954013478809"><ele>75.0</ele><time>2026-03-27T11:24:42Z</time></trkpt><trkpt lat="39.362268689507395" lon="16.039499433136267"><ele>76.66666666666667</ele><time>2026-03-27T11:24:43Z</time></trkpt><trkpt lat="39.36233846461446" lon="16.039450885150643"><ele>78.33333333333333</ele><time>2026-03-27T11:24:44Z</time></trkpt><trkpt lat="39.36240413495554" lon="16.039400767744187"><ele>80.0</ele><time>2026-03-27T11:24:45Z</time></trkpt><trkpt lat="39.3624720997828" lon="16.039347576592323"><ele>81.66666666666666</ele><time>2026-03-27T11:24:46Z</time></trkpt><trkpt lat="39.36253992359603" lon="16.03929729758254"><ele>83.33333333333333</ele><time>2026-03-27T11:24:47Z</time></trkpt><trkpt lat="39.36260277584516" lon="16.039248601688136"><ele>85.0</ele><time>2026-03-27T11:24:48Z</time></trkpt><trkpt lat="39.36266136979981" lon="16.03920177264613"><ele>85.0</ele><time>2026-03-27T11:24:49Z</time></trkpt><trkpt lat="39.36272502979709" lon="16.039156753408665"><ele>85.0</ele><time>2026-03-27T11:24:50Z</time></trkpt><trkpt lat="39.36278710002055" lon="16.03911217375491"><ele>85.0</ele><time>2026-03-27T11:24:51Z</time></trkpt><trkpt lat="39.36284894330841" lon="16.039067158832502"><ele>85.0</ele><time>2026-03-27T11:24:52Z</time></trkpt><trkpt lat="39.36291600531874" lon="16.03905073486701"><ele>85.0</ele><time>2026-03-27T11:24:53Z</time></trkpt><trkpt lat="39.36298041546138" lon="16.03906556493444"><ele>85.0</ele><time>2026-03-27T11:24:54Z</time></trkpt><trkpt lat="39.36303735771217" lon="16.039103617954407"><ele>85.0</ele><time>2026-03-27T11:24:55Z</time></trkpt><trkpt lat="39.363122161384084" lon="16.039223792845625"><ele>86.5</ele><time>2026-03-27T11:24:57Z</time></trkpt><trkpt lat="39.36319488758551" lon="16.039356927499565"><ele>88.0</ele><time>2026-03-27T11:24:59Z</time></trkpt><trkpt lat="39.3632306800815" lon="16.039432249264674"><ele>89.5</ele><time>2026-03-27T11:25:00Z</time></trkpt><trkpt lat="39.363265548597205" lon="16.039512726873856"><ele>91.0</ele><time>2026-03-27T11:25:01Z</time></trkpt><trkpt lat="39.36329762859632" lon="16.039593706536902"><ele>92.5</ele><time>2026-03-27T11:25:02Z</time></trkpt><trkpt lat="39.363331821537" lon="16.03966788428363"><ele>94.0</ele><time>2026-03-27T11:25:03Z</time></trkpt><trkpt lat="39.363360947032014" lon="16.039743670666624"><ele>94.0</ele><time>2026-03-27T11:25:04Z</time></trkpt><trkpt lat="39.36339454522025" lon="16.039820423732014"><ele>94.0</ele><time>2026-03-27T11:25:05Z</time></trkpt><trkpt lat="39.36344116902737" lon="16.03988868955905"><ele>94.0</ele><time>2026-03-27T11:25:06Z</time></trkpt><trkpt lat="39.363487747199976" lon="16.03995816276348"><ele>94.0</ele><time>2026-03-27T11:25:07Z</time></trkpt><trkpt lat="39.36354225676875" lon="16.040016546698226"><ele>94.0</ele><time>2026-03-27T11:25:08Z</time></trkpt><trkpt lat="39.36360255561312" lon="16.04007141917412"><ele>94.0</ele><time>2026-03-27T11:25:09Z</time></trkpt><trkpt lat="39.36366513067783" lon="16.040112280110236"><ele>94.0</ele><time>2026-03-27T11:25:10Z</time></trkpt><trkpt lat="39.36372372605708" lon="16.040159493483646"><ele>94.71428571428571</ele><time>2026-03-27T11:25:11Z</time></trkpt><trkpt lat="39.3637919372965" lon="16.0401895957348"><ele>95.42857142857142</ele><time>2026-03-27T11:25:12Z</time></trkpt><trkpt lat="39.36385606423349" lon="16.040212967550005"><ele>96.14285714285714</ele><time>2026-03-27T11:25:13Z</time></trkpt><trkpt lat="39.363920172971284" lon="16.04023291063822"><ele>96.85714285714286</ele><time>2026-03-27T11:25:14Z</time></trkpt><trkpt lat="39.36399155191152" lon="16.040250274344327"><ele>97.57142857142857</ele><time>2026-03-27T11:25:15Z</time></trkpt><trkpt lat="39.364069465269665" lon="16.04026702697809"><ele>98.28571428571429</ele><time>2026-03-27T11:25:16Z</time></trkpt><trkpt lat="39.36414279755199" lon="16.040283898826598"><ele>99.0</ele><time>2026-03-27T11:25:17Z</time></trkpt><trkpt lat="39.36421652717176" lon="16.04029934075931"><ele>99.66666666666667</ele><time>2026-03-27T11:25:18Z</time></trkpt><trkpt lat="39.364289333738604" lon="16.04031339970029"><ele>100.33333333333334</ele><time>2026-03-27T11:25:19Z</time></trkpt><trkpt lat="39.36435626984678" lon="16.04032673429493"><ele>101.0</ele><time>2026-03-27T11:25:20Z</time></trkpt><trkpt lat="39.36446817873463" lon="16.04035393566979"><ele>101.66666666666667</ele><time>2026-03-27T11:25:22Z</time></trkpt><trkpt lat="39.364542387999286" lon="16.040446638555032"><ele>102.33333333333334</ele><time>2026-03-27T11:25:24Z</time></trkpt><trkpt lat="39.36450136095121" lon="16.04054985693124"><ele>103.0</ele><time>2026-03-27T11:25:26Z</time></trkpt><trkpt lat="39.36443677408962" lon="16.040553924173793"><ele>103.00000000000001</ele><time>2026-03-27T11:25:26.999Z</time></trkpt><trkpt lat="39.36433157793025" lon="16.040626102626938"><ele>103.0</ele><time>2026-03-27T11:25:28.999Z</time></trkpt><trkpt lat="39.36426533726941" lon="16.040659753106688"><ele>103.0</ele><time>2026-03-27T11:25:29.999Z</time></trkpt><trkpt lat="39.36419709987219" lon="16.0406947852116"><ele>103.0</ele><time>2026-03-27T11:25:30.999Z</time></trkpt><trkpt lat="39.36413043563186" lon="16.04072879418963"><ele>103.00000000000001</ele><time>2026-03-27T11:25:31.999Z</time></trkpt><trkpt lat="39.36406588492678" lon="16.0407634566225"><ele>103.0</ele><time>2026-03-27T11:25:32.999Z</time></trkpt><trkpt lat="39.36400223706204" lon="16.040796589504108"><ele>104.14285714285714</ele><time>2026-03-27T11:25:33.999Z</time></trkpt><trkpt lat="39.363937096386415" lon="16.040825500760693"><ele>105.28571428571428</ele><time>2026-03-27T11:25:34.999Z</time></trkpt><trkpt lat="39.36387299122357" lon="16.040857716650844"><ele>106.42857142857142</ele><time>2026-03-27T11:25:35.999Z</time></trkpt><trkpt lat="39.36380831527905" lon="16.040890991486883"><ele>107.57142857142857</ele><time>2026-03-27T11:25:36.999Z</time></trkpt><trkpt lat="39.36374528157813" lon="16.040925042646712"><ele>108.71428571428572</ele><time>2026-03-27T11:25:37.999Z</time></trkpt><trkpt lat="39.363681620888876" lon="16.040959395489296"><ele>109.85714285714285</ele><time>2026-03-27T11:25:38.999Z</time></trkpt><trkpt lat="39.363615516884714" lon="16.040998571578132"><ele>111.0</ele><time>2026-03-27T11:25:39.999Z</time></trkpt><trkpt lat="39.36354647011303" lon="16.0410333464427"><ele>111.0</ele><time>2026-03-27T11:25:40.999Z</time></trkpt><trkpt lat="39.36347545286262" lon="16.04106367344815"><ele>111.0</ele><time>2026-03-27T11:25:42Z</time></trkpt><trkpt lat="39.36340579005757" lon="16.04109560015635"><ele>111.0</ele><time>2026-03-27T11:25:43Z</time></trkpt><trkpt lat="39.36333830439344" lon="16.0411327253445"><ele>111.0</ele><time>2026-03-27T11:25:44Z</time></trkpt><trkpt lat="39.36327360341489" lon="16.041169109077398"><ele>111.0</ele><time>2026-03-27T11:25:45Z</time></trkpt><trkpt lat="39.36321672697503" lon="16.041213951729965"><ele>111.0</ele><time>2026-03-27T11:25:46Z</time></trkpt><trkpt lat="39.36316970174759" lon="16.04126962418089"><ele>111.0</ele><time>2026-03-27T11:25:47Z</time></trkpt><trkpt lat="39.363129987413224" lon="16.041400460515405"><ele>111.0</ele><time>2026-03-27T11:25:49Z</time></trkpt><trkpt lat="39.363124253998926" lon="16.041538414261204"><ele>111.0</ele><time>2026-03-27T11:25:51Z</time></trkpt><trkpt lat="39.36317465139304" lon="16.041639953284147"><ele>111.0</ele><time>2026-03-27T11:25:53Z</time></trkpt><trkpt lat="39.36325843024701" lon="16.041661092215982"><ele>111.0</ele><time>2026-03-27T11:25:55Z</time></trkpt><trkpt lat="39.36334670577418" lon="16.041678030694378"><ele>111.0</ele><time>2026-03-27T11:25:57Z</time></trkpt><trkpt lat="39.36344299676374" lon="16.041711729591448"><ele>113.0</ele><time>2026-03-27T11:25:59Z</time></trkpt><trkpt lat="39.363536989482334" lon="16.04173552698707"><ele>115.0</ele><time>2026-03-27T11:26:01Z</time></trkpt><trkpt lat="39.363633395284566" lon="16.041756367006506"><ele>117.0</ele><time>2026-03-27T11:26:03Z</time></trkpt><trkpt lat="39.36374888609393" lon="16.04178357825876"><ele>119.0</ele><time>2026-03-27T11:26:05Z</time></trkpt><trkpt lat="39.3638679285773" lon="16.041813864515174"><ele>121.0</ele><time>2026-03-27T11:26:07Z</time></trkpt><trkpt lat="39.36397886856334" lon="16.041828812373918"><ele>121.6</ele><time>2026-03-27T11:26:09Z</time></trkpt><trkpt lat="39.36408113154889" lon="16.041843328795466"><ele>122.19999999999999</ele><time>2026-03-27T11:26:11Z</time></trkpt><trkpt lat="39.36418114894906" lon="16.04186705169407"><ele>122.80000000000001</ele><time>2026-03-27T11:26:13Z</time></trkpt><trkpt lat="39.364287807807024" lon="16.041890491323162"><ele>123.4</ele><time>2026-03-27T11:26:15Z</time></trkpt><trkpt lat="39.36440125085623" lon="16.041907881955286"><ele>124.0</ele><time>2026-03-27T11:26:17Z</time></trkpt><trkpt lat="39.364521271530194" lon="16.041933434113854"><ele>124.0</ele><time>2026-03-27T11:26:19Z</time></trkpt><trkpt lat="39.36464132954286" lon="16.041956752069314"><ele>124.0</ele><time>2026-03-27T11:26:21Z</time></trkpt><trkpt lat="39.36476280813486" lon="16.041976245473684"><ele>124.0</ele><time>2026-03-27T11:26:23Z</time></trkpt><trkpt lat="39.364879110222496" lon="16.041998375421215"><ele>124.0</ele><time>2026-03-27T11:26:25Z</time></trkpt><trkpt lat="39.364996002263474" lon="16.042016788197166"><ele>124.66666666666667</ele><time>2026-03-27T11:26:27Z</time></trkpt><trkpt lat="39.36505932815921" lon="16.042029447660482"><ele>125.33333333333334</ele><time>2026-03-27T11:26:28Z</time></trkpt><trkpt lat="39.365123278514574" lon="16.04204371271854"><ele>126.0</ele><time>2026-03-27T11:26:29Z</time></trkpt><trkpt lat="39.36524814759561" lon="16.04206834037757"><ele>126.66666666666666</ele><time>2026-03-27T11:26:31Z</time></trkpt><trkpt lat="39.36531131130058" lon="16.042076513284208"><ele>127.33333333333333</ele><time>2026-03-27T11:26:32Z</time></trkpt><trkpt lat="39.365377524828254" lon="16.04208737493384"><ele>128.0</ele><time>2026-03-27T11:26:33Z</time></trkpt><trkpt lat="39.36544803962793" lon="16.04210094442127"><ele>128.0</ele><time>2026-03-27T11:26:34Z</time></trkpt><trkpt lat="39.365520827698965" lon="16.0421153113176"><ele>127.99999999999999</ele><time>2026-03-27T11:26:35Z</time></trkpt><trkpt lat="39.36559179414142" lon="16.0421349737981"><ele>128.0</ele><time>2026-03-27T11:26:36Z</time></trkpt><trkpt lat="39.36565940439317" lon="16.042156175762596"><ele>128.0</ele><time>2026-03-27T11:26:37Z</time></trkpt><trkpt lat="39.36572430823165" lon="16.042186399743798"><ele>127.99999999999999</ele><time>2026-03-27T11:26:38Z</time></trkpt><trkpt lat="39.36578748744452" lon="16.04222307634315"><ele>128.0</ele><time>2026-03-27T11:26:39Z</time></trkpt><trkpt lat="39.36584780485144" lon="16.04226359830616"><ele>128.0</ele><time>2026-03-27T11:26:40Z</time></trkpt><trkpt lat="39.36590416835693" lon="16.042309003777326"><ele>128.0</ele><time>2026-03-27T11:26:41Z</time></trkpt><trkpt lat="39.365958397719766" lon="16.042356166917926"><ele>127.99999999999999</ele><time>2026-03-27T11:26:42Z</time></trkpt><trkpt lat="39.36601266387983" lon="16.042403930023056"><ele>128.0</ele><time>2026-03-27T11:26:43Z</time></trkpt><trkpt lat="39.36607175276719" lon="16.042454619173604"><ele>128.0</ele><time>2026-03-27T11:26:44Z</time></trkpt><trkpt lat="39.36613142163813" lon="16.042515032185943"><ele>127.99999999999999</ele><time>2026-03-27T11:26:45Z</time></trkpt><trkpt lat="39.3661917516641" lon="16.042572243357576"><ele>128.0</ele><time>2026-03-27T11:26:46Z</time></trkpt><trkpt lat="39.366245382329396" lon="16.042619614689052"><ele>128.0</ele><time>2026-03-27T11:26:47Z</time></trkpt><trkpt lat="39.36630069290804" lon="16.042663098760507"><ele>130.0</ele><time>2026-03-27T11:26:48Z</time></trkpt><trkpt lat="39.36636277821874" lon="16.0427033455459"><ele>132.0</ele><time>2026-03-27T11:26:49Z</time></trkpt><trkpt lat="39.366431168523604" lon="16.042741196438538"><ele>134.0</ele><time>2026-03-27T11:26:50Z</time></trkpt><trkpt lat="39.36651229907953" lon="16.042771349562386"><ele>136.0</ele><time>2026-03-27T11:26:51Z</time></trkpt><trkpt lat="39.36659466576603" lon="16.042798922465966"><ele>138.0</ele><time>2026-03-27T11:26:52Z</time></trkpt><trkpt lat="39.36668372935461" lon="16.042835382499348"><ele>140.0</ele><time>2026-03-27T11:26:53Z</time></trkpt><trkpt lat="39.36677676079309" lon="16.042878616337894"><ele>140.0</ele><time>2026-03-27T11:26:54Z</time></trkpt><trkpt lat="39.36686720143686" lon="16.042917184221608"><ele>140.0</ele><time>2026-03-27T11:26:55Z</time></trkpt><trkpt lat="39.36694988051485" lon="16.04295330412192"><ele>140.0</ele><time>2026-03-27T11:26:56Z</time></trkpt><trkpt lat="39.36702561750959" lon="16.042990866105864"><ele>140.0</ele><time>2026-03-27T11:26:57Z</time></trkpt><trkpt lat="39.367093370342886" lon="16.043027237127742"><ele>140.0</ele><time>2026-03-27T11:26:58Z</time></trkpt><trkpt lat="39.36715401166944" lon="16.043057501786116"><ele>140.0</ele><time>2026-03-27T11:26:59Z</time></trkpt><trkpt lat="39.36721754651013" lon="16.043087377658424"><ele>139.33333333333331</ele><time>2026-03-27T11:27:00Z</time></trkpt><trkpt lat="39.36727945739797" lon="16.043110683309468"><ele>138.66666666666666</ele><time>2026-03-27T11:27:01Z</time></trkpt><trkpt lat="39.36738018300469" lon="16.043165314246547"><ele>138.0</ele><time>2026-03-27T11:27:03Z</time></trkpt><trkpt lat="39.367469863657014" lon="16.04320875967757"><ele>137.33333333333334</ele><time>2026-03-27T11:27:05Z</time></trkpt><trkpt lat="39.3675746224905" lon="16.0432610941073"><ele>136.66666666666669</ele><time>2026-03-27T11:27:07Z</time></trkpt><trkpt lat="39.36763267859238" lon="16.043294533485447"><ele>136.0</ele><time>2026-03-27T11:27:08Z</time></trkpt><trkpt lat="39.367693025552306" lon="16.04332572405206"><ele>136.16666666666669</ele><time>2026-03-27T11:27:09Z</time></trkpt><trkpt lat="39.3677589190572" lon="16.04334193136651"><ele>136.33333333333334</ele><time>2026-03-27T11:27:10Z</time></trkpt><trkpt lat="39.36787257072897" lon="16.043355322293728"><ele>136.5</ele><time>2026-03-27T11:27:12Z</time></trkpt><trkpt lat="39.36798726524725" lon="16.04332779260831"><ele>136.66666666666666</ele><time>2026-03-27T11:27:14Z</time></trkpt><trkpt lat="39.36805204499665" lon="16.04330043502514"><ele>136.83333333333331</ele><time>2026-03-27T11:27:15Z</time></trkpt><trkpt lat="39.36812091153293" lon="16.04326452300395"><ele>137.0</ele><time>2026-03-27T11:27:16Z</time></trkpt><trkpt lat="39.36819437846108" lon="16.043228460309443"><ele>137.0</ele><time>2026-03-27T11:27:17Z</time></trkpt><trkpt lat="39.36827194284064" lon="16.04319284626896"><ele>137.0</ele><time>2026-03-27T11:27:18Z</time></trkpt><trkpt lat="39.36835040143857" lon="16.043157700641725"><ele>137.0</ele><time>2026-03-27T11:27:19Z</time></trkpt><trkpt lat="39.36842174814669" lon="16.04310973721757"><ele>137.0</ele><time>2026-03-27T11:27:20Z</time></trkpt><trkpt lat="39.36848501854558" lon="16.043056614525753"><ele>137.0</ele><time>2026-03-27T11:27:21Z</time></trkpt><trkpt lat="39.36853971206585" lon="16.04298817603348"><ele>137.0</ele><time>2026-03-27T11:27:22Z</time></trkpt><trkpt lat="39.368592314101875" lon="16.042917451395095"><ele>137.0</ele><time>2026-03-27T11:27:23Z</time></trkpt><trkpt lat="39.368630342762685" lon="16.042826039583854"><ele>137.0</ele><time>2026-03-27T11:27:24Z</time></trkpt><trkpt lat="39.36865506717846" lon="16.04272608293412"><ele>137.0</ele><time>2026-03-27T11:27:25Z</time></trkpt><trkpt lat="39.36866605900671" lon="16.042627170791746"><ele>137.0</ele><time>2026-03-27T11:27:26Z</time></trkpt><trkpt lat="39.36866283962629" lon="16.042526823619646"><ele>137.0</ele><time>2026-03-27T11:27:27Z</time></trkpt><trkpt lat="39.368646894974745" lon="16.04242594667498"><ele>137.0</ele><time>2026-03-27T11:27:28Z</time></trkpt><trkpt lat="39.36862164439557" lon="16.04232963113235"><ele>137.00000000000003</ele><time>2026-03-27T11:27:29Z</time></trkpt><trkpt lat="39.3685994843066" lon="16.042236610043705"><ele>137.0</ele><time>2026-03-27T11:27:30Z</time></trkpt><trkpt lat="39.36859961680553" lon="16.042141544314024"><ele>137.0</ele><time>2026-03-27T11:27:31Z</time></trkpt><trkpt lat="39.36862125539739" lon="16.042054959604364"><ele>137.0</ele><time>2026-03-27T11:27:32Z</time></trkpt><trkpt lat="39.36866675344751" lon="16.041990059723787"><ele>137.0</ele><time>2026-03-27T11:27:33Z</time></trkpt><trkpt lat="39.3687235098196" lon="16.041948043477866"><ele>137.00000000000003</ele><time>2026-03-27T11:27:34Z</time></trkpt><trkpt lat="39.36879652696735" lon="16.041926008627936"><ele>137.0</ele><time>2026-03-27T11:27:35Z</time></trkpt><trkpt lat="39.368867821317124" lon="16.041899048785606"><ele>139.66666666666666</ele><time>2026-03-27T11:27:36Z</time></trkpt><trkpt lat="39.36893576187027" lon="16.04187180425001"><ele>142.33333333333331</ele><time>2026-03-27T11:27:37Z</time></trkpt><trkpt lat="39.369004524885696" lon="16.04184729500533"><ele>145.0</ele><time>2026-03-27T11:27:38Z</time></trkpt><trkpt lat="39.369082063654446" lon="16.041823857024358"><ele>147.66666666666666</ele><time>2026-03-27T11:27:39Z</time></trkpt><trkpt lat="39.36916680894052" lon="16.041794727130124"><ele>150.33333333333334</ele><time>2026-03-27T11:27:40Z</time></trkpt><trkpt lat="39.369253378893355" lon="16.041762965406576"><ele>153.0</ele><time>2026-03-27T11:27:41Z</time></trkpt><trkpt lat="39.36933997852022" lon="16.0417295624911"><ele>153.0</ele><time>2026-03-27T11:27:42Z</time></trkpt><trkpt lat="39.36942486562124" lon="16.04169107781336"><ele>153.0</ele><time>2026-03-27T11:27:43Z</time></trkpt><trkpt lat="39.36950529474405" lon="16.041639825608318"><ele>153.0</ele><time>2026-03-27T11:27:44Z</time></trkpt><trkpt lat="39.36958076506725" lon="16.04157690839201"><ele>153.0</ele><time>2026-03-27T11:27:45Z</time></trkpt><trkpt lat="39.36965218911346" lon="16.041504699974062"><ele>153.0</ele><time>2026-03-27T11:27:46Z</time></trkpt><trkpt lat="39.36972429921631" lon="16.04143073849155"><ele>152.4</ele><time>2026-03-27T11:27:47Z</time></trkpt><trkpt lat="39.36979510466624" lon="16.041350603182973"><ele>151.8</ele><time>2026-03-27T11:27:48Z</time></trkpt><trkpt lat="39.369865148837924" lon="16.041270077855206"><ele>151.2</ele><time>2026-03-27T11:27:49Z</time></trkpt><trkpt lat="39.369936907353676" lon="16.041195103328736"><ele>150.6</ele><time>2026-03-27T11:27:50Z</time></trkpt><trkpt lat="39.370009636254274" lon="16.041133089606326"><ele>150.0</ele><time>2026-03-27T11:27:51Z</time></trkpt><trkpt lat="39.370088557736885" lon="16.041101578195327"><ele>150.0</ele><time>2026-03-27T11:27:52Z</time></trkpt><trkpt lat="39.37016739767374" lon="16.04109637012985"><ele>150.0</ele><time>2026-03-27T11:27:53Z</time></trkpt><trkpt lat="39.37024894503757" lon="16.041111815696755"><ele>150.0</ele><time>2026-03-27T11:27:54Z</time></trkpt><trkpt lat="39.370332663024165" lon="16.041137137633797"><ele>150.0</ele><time>2026-03-27T11:27:55Z</time></trkpt><trkpt lat="39.370420825414286" lon="16.041169623919025"><ele>150.0</ele><time>2026-03-27T11:27:56Z</time></trkpt><trkpt lat="39.37051235007974" lon="16.04121061185564"><ele>150.0</ele><time>2026-03-27T11:27:57Z</time></trkpt><trkpt lat="39.37061009440663" lon="16.041249194006063"><ele>150.8</ele><time>2026-03-27T11:27:58Z</time></trkpt><trkpt lat="39.370708164493024" lon="16.041287918900643"><ele>151.6</ele><time>2026-03-27T11:27:59Z</time></trkpt><trkpt lat="39.37080367651542" lon="16.04132732928057"><ele>152.4</ele><time>2026-03-27T11:28:00Z</time></trkpt><trkpt lat="39.370894230025236" lon="16.041364065155925"><ele>153.2</ele><time>2026-03-27T11:28:01Z</time></trkpt><trkpt lat="39.37097949700319" lon="16.041396981331783"><ele>154.0</ele><time>2026-03-27T11:28:02Z</time></trkpt><trkpt lat="39.371062681952" lon="16.041424540859225"><ele>154.0</ele><time>2026-03-27T11:28:03Z</time></trkpt><trkpt lat="39.37114493860007" lon="16.041436143389443"><ele>154.0</ele><time>2026-03-27T11:28:04Z</time></trkpt><trkpt lat="39.37122650120845" lon="16.041428453577932"><ele>154.0</ele><time>2026-03-27T11:28:05Z</time></trkpt><trkpt lat="39.3713102775939" lon="16.0414025757115"><ele>154.0</ele><time>2026-03-27T11:28:06Z</time></trkpt><trkpt lat="39.37139061074326" lon="16.041358696430276"><ele>154.0</ele><time>2026-03-27T11:28:07Z</time></trkpt><trkpt lat="39.371469256555415" lon="16.04129410996202"><ele>154.0</ele><time>2026-03-27T11:28:08Z</time></trkpt><trkpt lat="39.37154676171866" lon="16.041224776602437"><ele>155.2</ele><time>2026-03-27T11:28:09Z</time></trkpt><trkpt lat="39.37162681136913" lon="16.041160402429824"><ele>156.4</ele><time>2026-03-27T11:28:10Z</time></trkpt><trkpt lat="39.371709825585114" lon="16.041100094771515"><ele>157.6</ele><time>2026-03-27T11:28:11Z</time></trkpt><trkpt lat="39.37179492334227" lon="16.041046336847653"><ele>158.8</ele><time>2026-03-27T11:28:12Z</time></trkpt><trkpt lat="39.371883234385884" lon="16.04100933396716"><ele>160.0</ele><time>2026-03-27T11:28:13Z</time></trkpt><trkpt lat="39.37197816391792" lon="16.040984279828525"><ele>160.0</ele><time>2026-03-27T11:28:14Z</time></trkpt><trkpt lat="39.37206443531305" lon="16.040954365834754"><ele>160.0</ele><time>2026-03-27T11:28:15Z</time></trkpt><trkpt lat="39.37214525880411" lon="16.04090668508795"><ele>160.0</ele><time>2026-03-27T11:28:16Z</time></trkpt><trkpt lat="39.37221164939968" lon="16.040833069275696"><ele>160.0</ele><time>2026-03-27T11:28:17Z</time></trkpt><trkpt lat="39.372263180437734" lon="16.040738781501666"><ele>160.0</ele><time>2026-03-27T11:28:18Z</time></trkpt><trkpt lat="39.3723096830928" lon="16.04063996673009"><ele>160.0</ele><time>2026-03-27T11:28:19Z</time></trkpt><trkpt lat="39.372364521635525" lon="16.040551652480396"><ele>159.83333333333334</ele><time>2026-03-27T11:28:20Z</time></trkpt><trkpt lat="39.37243279713914" lon="16.040480691068826"><ele>159.66666666666669</ele><time>2026-03-27T11:28:21Z</time></trkpt><trkpt lat="39.37251443081616" lon="16.04043746591465"><ele>159.5</ele><time>2026-03-27T11:28:22Z</time></trkpt><trkpt lat="39.372596320706805" lon="16.040410407790677"><ele>159.33333333333334</ele><time>2026-03-27T11:28:23Z</time></trkpt><trkpt lat="39.372672868900125" lon="16.040388035200984"><ele>159.16666666666666</ele><time>2026-03-27T11:28:24Z</time></trkpt><trkpt lat="39.3727376866335" lon="16.040370286315866"><ele>159.0</ele><time>2026-03-27T11:28:25Z</time></trkpt><trkpt lat="39.372846036326635" lon="16.04033863719185"><ele>159.0</ele><time>2026-03-27T11:28:27Z</time></trkpt><trkpt lat="39.372951416825934" lon="16.040306135946395"><ele>159.0</ele><time>2026-03-27T11:28:29Z</time></trkpt><trkpt lat="39.373073408535255" lon="16.04026767320859"><ele>159.0</ele><time>2026-03-27T11:28:31Z</time></trkpt><trkpt lat="39.37313702365842" lon="16.040247556935274"><ele>159.0</ele><time>2026-03-27T11:28:32Z</time></trkpt><trkpt lat="39.373200449163186" lon="16.04022815866543"><ele>159.0</ele><time>2026-03-27T11:28:33Z</time></trkpt><trkpt lat="39.37326882774678" lon="16.04020818972086"><ele>159.0</ele><time>2026-03-27T11:28:34Z</time></trkpt><trkpt lat="39.373341206847535" lon="16.040185317238077"><ele>160.33333333333334</ele><time>2026-03-27T11:28:35Z</time></trkpt><trkpt lat="39.37341531147566" lon="16.04016139100816"><ele>161.66666666666666</ele><time>2026-03-27T11:28:36Z</time></trkpt><trkpt lat="39.37349181027802" lon="16.04013647767552"><ele>163.0</ele><time>2026-03-27T11:28:37Z</time></trkpt><trkpt lat="39.37357029174048" lon="16.040110180754457"><ele>164.33333333333331</ele><time>2026-03-27T11:28:38Z</time></trkpt><trkpt lat="39.37365068389173" lon="16.040083068674964"><ele>165.66666666666666</ele><time>2026-03-27T11:28:39Z</time></trkpt><trkpt lat="39.37373163957986" lon="16.040057061077572"><ele>167.0</ele><time>2026-03-27T11:28:40Z</time></trkpt><trkpt lat="39.373813467253484" lon="16.04003014201521"><ele>167.83333333333331</ele><time>2026-03-27T11:28:41Z</time></trkpt><trkpt lat="39.373895262334244" lon="16.040006103307956"><ele>168.66666666666666</ele><time>2026-03-27T11:28:42Z</time></trkpt><trkpt lat="39.37397551699617" lon="16.03998047809381"><ele>169.5</ele><time>2026-03-27T11:28:43Z</time></trkpt><trkpt lat="39.374052103944905" lon="16.039956127286427"><ele>170.33333333333334</ele><time>2026-03-27T11:28:44Z</time></trkpt><trkpt lat="39.37412421705543" lon="16.039933970247315"><ele>171.16666666666669</ele><time>2026-03-27T11:28:45Z</time></trkpt><trkpt lat="39.374193957888515" lon="16.039911034499664"><ele>172.0</ele><time>2026-03-27T11:28:46Z</time></trkpt><trkpt lat="39.374264695315475" lon="16.0398837590475"><ele>170.33333333333334</ele><time>2026-03-27T11:28:47Z</time></trkpt><trkpt lat="39.374334905548324" lon="16.03985922899817"><ele>168.66666666666669</ele><time>2026-03-27T11:28:48Z</time></trkpt><trkpt lat="39.374404338990956" lon="16.039827144167504"><ele>167.0</ele><time>2026-03-27T11:28:49Z</time></trkpt><trkpt lat="39.374464985133294" lon="16.039770136656113"><ele>165.33333333333334</ele><time>2026-03-27T11:28:50Z</time></trkpt><trkpt lat="39.374513869893335" lon="16.039691540502567"><ele>163.66666666666666</ele><time>2026-03-27T11:28:51Z</time></trkpt><trkpt lat="39.37455163518298" lon="16.039603328172916"><ele>162.0</ele><time>2026-03-27T11:28:52Z</time></trkpt><trkpt lat="39.37458374009437" lon="16.039508756982794"><ele>162.0</ele><time>2026-03-27T11:28:53Z</time></trkpt><trkpt lat="39.374610194909714" lon="16.039407317174263"><ele>162.0</ele><time>2026-03-27T11:28:54Z</time></trkpt><trkpt lat="39.37463916901468" lon="16.039300805000078"><ele>162.0</ele><time>2026-03-27T11:28:55Z</time></trkpt><trkpt lat="39.37467002977157" lon="16.039192009649238"><ele>162.0</ele><time>2026-03-27T11:28:56Z</time></trkpt><trkpt lat="39.37470467666919" lon="16.03907937027285"><ele>162.0</ele><time>2026-03-27T11:28:57Z</time></trkpt><trkpt lat="39.37474069112767" lon="16.03896539485719"><ele>162.0</ele><time>2026-03-27T11:28:58Z</time></trkpt><trkpt lat="39.37477828083803" lon="16.038854472514576"><ele>163.2</ele><time>2026-03-27T11:28:59Z</time></trkpt><trkpt lat="39.37482622269398" lon="16.038749476415926"><ele>164.39999999999998</ele><time>2026-03-27T11:29:00Z</time></trkpt><trkpt lat="39.37488848873123" lon="16.038656756589077"><ele>165.60000000000002</ele><time>2026-03-27T11:29:01Z</time></trkpt><trkpt lat="39.374960389447054" lon="16.0385777851854"><ele>166.8</ele><time>2026-03-27T11:29:02Z</time></trkpt><trkpt lat="39.37503918284638" lon="16.038509497482067"><ele>168.0</ele><time>2026-03-27T11:29:03Z</time></trkpt><trkpt lat="39.37512240329428" lon="16.03844990078742"><ele>168.0</ele><time>2026-03-27T11:29:04Z</time></trkpt><trkpt lat="39.3752072204115" lon="16.038389865757697"><ele>168.0</ele><time>2026-03-27T11:29:05Z</time></trkpt><trkpt lat="39.37529215449196" lon="16.0383324088768"><ele>168.0</ele><time>2026-03-27T11:29:06Z</time></trkpt><trkpt lat="39.37537860847506" lon="16.03827310590953"><ele>168.0</ele><time>2026-03-27T11:29:07Z</time></trkpt><trkpt lat="39.37546255751633" lon="16.038213091106325"><ele>168.0</ele><time>2026-03-27T11:29:08Z</time></trkpt><trkpt lat="39.375549022383716" lon="16.038152486445036"><ele>167.8</ele><time>2026-03-27T11:29:09Z</time></trkpt><trkpt lat="39.375627960465195" lon="16.038092977803824"><ele>167.60000000000002</ele><time>2026-03-27T11:29:10Z</time></trkpt><trkpt lat="39.3757096427593" lon="16.038032008684684"><ele>167.39999999999998</ele><time>2026-03-27T11:29:11Z</time></trkpt><trkpt lat="39.3757894597388" lon="16.03797486211015"><ele>167.2</ele><time>2026-03-27T11:29:12Z</time></trkpt><trkpt lat="39.37586797079465" lon="16.037921570134564"><ele>167.0</ele><time>2026-03-27T11:29:13Z</time></trkpt><trkpt lat="39.37594392265277" lon="16.037869689592576"><ele>167.0</ele><time>2026-03-27T11:29:14Z</time></trkpt><trkpt lat="39.37601644005248" lon="16.037819516808"><ele>167.0</ele><time>2026-03-27T11:29:15Z</time></trkpt><trkpt lat="39.37608917578245" lon="16.037781198489128"><ele>167.0</ele><time>2026-03-27T11:29:16Z</time></trkpt><trkpt lat="39.37616508444623" lon="16.037758578901517"><ele>167.0</ele><time>2026-03-27T11:29:17Z</time></trkpt><trkpt lat="39.37624016015805" lon="16.03774989134565"><ele>167.0</ele><time>2026-03-27T11:29:18Z</time></trkpt><trkpt lat="39.37631243329985" lon="16.037744168482423"><ele>167.0</ele><time>2026-03-27T11:29:19Z</time></trkpt><trkpt lat="39.37638553382342" lon="16.037743361331106"><ele>166.71428571428572</ele><time>2026-03-27T11:29:20Z</time></trkpt><trkpt lat="39.37645864236014" lon="16.03774310941702"><ele>166.42857142857144</ele><time>2026-03-27T11:29:21Z</time></trkpt><trkpt lat="39.37653015100319" lon="16.037752054299734"><ele>166.14285714285717</ele><time>2026-03-27T11:29:22Z</time></trkpt><trkpt lat="39.37659832136212" lon="16.037786156179536"><ele>165.85714285714286</ele><time>2026-03-27T11:29:23Z</time></trkpt><trkpt lat="39.37665758478564" lon="16.037834893668705"><ele>165.57142857142858</ele><time>2026-03-27T11:29:24Z</time></trkpt><trkpt lat="39.37672098503927" lon="16.037882252819674"><ele>165.2857142857143</ele><time>2026-03-27T11:29:25Z</time></trkpt><trkpt lat="39.37678557601963" lon="16.03792077117792"><ele>165.0</ele><time>2026-03-27T11:29:26Z</time></trkpt><trkpt lat="39.37685011037268" lon="16.03794767108315"><ele>165.00000000000003</ele><time>2026-03-27T11:29:27Z</time></trkpt><trkpt lat="39.376917081320094" lon="16.037961792313183"><ele>165.0</ele><time>2026-03-27T11:29:28Z</time></trkpt><trkpt lat="39.376985322818975" lon="16.03796790696507"><ele>165.0</ele><time>2026-03-27T11:29:29Z</time></trkpt><trkpt lat="39.377054257843966" lon="16.037967381923593"><ele>165.0</ele><time>2026-03-27T11:29:30Z</time></trkpt><trkpt lat="39.3771239715097" lon="16.03795901654371"><ele>165.0</ele><time>2026-03-27T11:29:31Z</time></trkpt><trkpt lat="39.377196957012266" lon="16.037943963036184"><ele>165.00000000000003</ele><time>2026-03-27T11:29:32Z</time></trkpt><trkpt lat="39.37726934537705" lon="16.037926152574265"><ele>165.0</ele><time>2026-03-27T11:29:33Z</time></trkpt><trkpt lat="39.37734309333458" lon="16.03791032969098"><ele>164.66666666666666</ele><time>2026-03-27T11:29:34Z</time></trkpt><trkpt lat="39.37742161115085" lon="16.037893701010656"><ele>164.33333333333334</ele><time>2026-03-27T11:29:35Z</time></trkpt><trkpt lat="39.37750339745351" lon="16.03787413048232"><ele>164.0</ele><time>2026-03-27T11:29:36Z</time></trkpt><trkpt lat="39.377588101797826" lon="16.037854730632493"><ele>163.66666666666669</ele><time>2026-03-27T11:29:37Z</time></trkpt><trkpt lat="39.37767533857451" lon="16.037835093942718"><ele>163.33333333333334</ele><time>2026-03-27T11:29:38Z</time></trkpt><trkpt lat="39.37776281603916" lon="16.037821270576508"><ele>163.0</ele><time>2026-03-27T11:29:39Z</time></trkpt><trkpt lat="39.37785051704876" lon="16.037818385107624"><ele>163.0</ele><time>2026-03-27T11:29:40Z</time></trkpt><trkpt lat="39.37793430896161" lon="16.03784544347457"><ele>163.0</ele><time>2026-03-27T11:29:41Z</time></trkpt><trkpt lat="39.37800820861647" lon="16.037905266144215"><ele>163.0</ele><time>2026-03-27T11:29:42Z</time></trkpt><trkpt lat="39.37807728969383" lon="16.037978958662993"><ele>163.0</ele><time>2026-03-27T11:29:43Z</time></trkpt><trkpt lat="39.378140378492624" lon="16.03806345507979"><ele>163.0</ele><time>2026-03-27T11:29:44Z</time></trkpt><trkpt lat="39.378206362956796" lon="16.0381467720217"><ele>163.0</ele><time>2026-03-27T11:29:45Z</time></trkpt><trkpt lat="39.37827581332684" lon="16.038219888415114"><ele>162.0</ele><time>2026-03-27T11:29:46Z</time></trkpt><trkpt lat="39.37834798106003" lon="16.03828621687672"><ele>161.0</ele><time>2026-03-27T11:29:47Z</time></trkpt><trkpt lat="39.37841732036714" lon="16.038353527301837"><ele>160.0</ele><time>2026-03-27T11:29:48Z</time></trkpt><trkpt lat="39.37848793992134" lon="16.03841928881518"><ele>159.0</ele><time>2026-03-27T11:29:49Z</time></trkpt><trkpt lat="39.37856748403185" lon="16.038477063048862"><ele>158.0</ele><time>2026-03-27T11:29:50Z</time></trkpt><trkpt lat="39.37865339842804" lon="16.03852291676293"><ele>157.0</ele><time>2026-03-27T11:29:51Z</time></trkpt><trkpt lat="39.37874533719317" lon="16.038547049074598"><ele>160.16666666666669</ele><time>2026-03-27T11:29:52Z</time></trkpt><trkpt lat="39.378837705345" lon="16.038548122527136"><ele>163.33333333333334</ele><time>2026-03-27T11:29:53Z</time></trkpt><trkpt lat="39.37892735691525" lon="16.038531180919723"><ele>166.5</ele><time>2026-03-27T11:29:54Z</time></trkpt><trkpt lat="39.379012496973864" lon="16.038503492778496"><ele>169.66666666666666</ele><time>2026-03-27T11:29:55Z</time></trkpt><trkpt lat="39.37909688908637" lon="16.038472903575084"><ele>172.83333333333331</ele><time>2026-03-27T11:29:56Z</time></trkpt><trkpt lat="39.37918132473555" lon="16.038442479974023"><ele>176.0</ele><time>2026-03-27T11:29:57Z</time></trkpt><trkpt lat="39.37926350116586" lon="16.038408885268367"><ele>176.0</ele><time>2026-03-27T11:29:58Z</time></trkpt><trkpt lat="39.379343468700625" lon="16.038377085711865"><ele>176.0</ele><time>2026-03-27T11:29:59Z</time></trkpt><trkpt lat="39.379425175838946" lon="16.038347623237637"><ele>176.0</ele><time>2026-03-27T11:30:00Z</time></trkpt><trkpt lat="39.37950886072734" lon="16.038314500863326"><ele>176.0</ele><time>2026-03-27T11:30:01Z</time></trkpt><trkpt lat="39.37959301160017" lon="16.03827921387864"><ele>176.0</ele><time>2026-03-27T11:30:02Z</time></trkpt><trkpt lat="39.37967949889505" lon="16.038243915221482"><ele>176.0</ele><time>2026-03-27T11:30:03Z</time></trkpt><trkpt lat="39.37976787559896" lon="16.03821812785367"><ele>176.5</ele><time>2026-03-27T11:30:04Z</time></trkpt><trkpt lat="39.37985694694918" lon="16.03820707034997"><ele>177.0</ele><time>2026-03-27T11:30:05Z</time></trkpt><trkpt lat="39.379946411366575" lon="16.038213513795526"><ele>177.5</ele><time>2026-03-27T11:30:06Z</time></trkpt><trkpt lat="39.38003374575891" lon="16.038233057988545"><ele>178.0</ele><time>2026-03-27T11:30:07Z</time></trkpt><trkpt lat="39.380119099986985" lon="16.038268303087996"><ele>178.5</ele><time>2026-03-27T11:30:08Z</time></trkpt><trkpt lat="39.380204756288386" lon="16.038302251670956"><ele>179.0</ele><time>2026-03-27T11:30:09Z</time></trkpt><trkpt lat="39.380291592655716" lon="16.038336297067616"><ele>179.0</ele><time>2026-03-27T11:30:10Z</time></trkpt><trkpt lat="39.380383266026826" lon="16.03837425113949"><ele>179.0</ele><time>2026-03-27T11:30:11Z</time></trkpt><trkpt lat="39.38047824573511" lon="16.038413523029426"><ele>179.0</ele><time>2026-03-27T11:30:12Z</time></trkpt><trkpt lat="39.380572182161586" lon="16.038450979171877"><ele>179.0</ele><time>2026-03-27T11:30:13Z</time></trkpt><trkpt lat="39.3806687926135" lon="16.038488184462064"><ele>179.0</ele><time>2026-03-27T11:30:14Z</time></trkpt><trkpt lat="39.380767091989156" lon="16.038525084491827"><ele>179.0</ele><time>2026-03-27T11:30:15Z</time></trkpt><trkpt lat="39.38086372755268" lon="16.038563412577037"><ele>179.0</ele><time>2026-03-27T11:30:16Z</time></trkpt><trkpt lat="39.380957573568665" lon="16.03860205011858"><ele>179.0</ele><time>2026-03-27T11:30:17Z</time></trkpt><trkpt lat="39.38104792902371" lon="16.03864099325488"><ele>179.0</ele><time>2026-03-27T11:30:18Z</time></trkpt><trkpt lat="39.38113164802389" lon="16.038676681139922"><ele>179.0</ele><time>2026-03-27T11:30:19Z</time></trkpt><trkpt lat="39.38121153194215" lon="16.03870821430913"><ele>179.0</ele><time>2026-03-27T11:30:20Z</time></trkpt><trkpt lat="39.38128584314465" lon="16.038734584166082"><ele>179.0</ele><time>2026-03-27T11:30:21Z</time></trkpt><trkpt lat="39.38135572387573" lon="16.03875985567601"><ele>179.0</ele><time>2026-03-27T11:30:22Z</time></trkpt><trkpt lat="39.381488858107566" lon="16.038804551842972"><ele>179.0</ele><time>2026-03-27T11:30:24Z</time></trkpt><trkpt lat="39.381555635716055" lon="16.0388306575933"><ele>179.0</ele><time>2026-03-27T11:30:25Z</time></trkpt><trkpt lat="39.38162783384843" lon="16.038853319483042"><ele>179.0</ele><time>2026-03-27T11:30:26Z</time></trkpt><trkpt lat="39.38170578209311" lon="16.038864574698437"><ele>178.2</ele><time>2026-03-27T11:30:27Z</time></trkpt><trkpt lat="39.3817908721066" lon="16.038872736029976"><ele>177.39999999999998</ele><time>2026-03-27T11:30:28Z</time></trkpt><trkpt lat="39.38187863277035" lon="16.03888162071305"><ele>176.6</ele><time>2026-03-27T11:30:29Z</time></trkpt><trkpt lat="39.38197164293016" lon="16.03889676793198"><ele>175.8</ele><time>2026-03-27T11:30:30Z</time></trkpt><trkpt lat="39.3820709572118" lon="16.03890666633162"><ele>175.0</ele><time>2026-03-27T11:30:31Z</time></trkpt><trkpt lat="39.38217070673459" lon="16.03891701400582"><ele>175.4</ele><time>2026-03-27T11:30:32Z</time></trkpt><trkpt lat="39.382270917655816" lon="16.03892738622207"><ele>175.8</ele><time>2026-03-27T11:30:33Z</time></trkpt><trkpt lat="39.382369086731146" lon="16.03893831713617"><ele>176.2</ele><time>2026-03-27T11:30:34Z</time></trkpt><trkpt lat="39.38246723669537" lon="16.038947183492265"><ele>176.6</ele><time>2026-03-27T11:30:35Z</time></trkpt><trkpt lat="39.382563924956415" lon="16.038951151276603"><ele>177.0</ele><time>2026-03-27T11:30:36Z</time></trkpt><trkpt lat="39.38265735957033" lon="16.038945404700392"><ele>177.0</ele><time>2026-03-27T11:30:37Z</time></trkpt><trkpt lat="39.38274476948844" lon="16.03893816115412"><ele>177.0</ele><time>2026-03-27T11:30:38Z</time></trkpt><trkpt lat="39.38283137255582" lon="16.03892991554665"><ele>177.0</ele><time>2026-03-27T11:30:39Z</time></trkpt><trkpt lat="39.38291539699822" lon="16.038918942360887"><ele>177.0</ele><time>2026-03-27T11:30:40Z</time></trkpt><trkpt lat="39.383000507547514" lon="16.038899336962185"><ele>177.0</ele><time>2026-03-27T11:30:41Z</time></trkpt><trkpt lat="39.38308560604065" lon="16.038872636927366"><ele>177.0</ele><time>2026-03-27T11:30:42Z</time></trkpt><trkpt lat="39.38317346781411" lon="16.038842159361888"><ele>178.5</ele><time>2026-03-27T11:30:43Z</time></trkpt><trkpt lat="39.38326130276924" lon="16.03881009323123"><ele>180.0</ele><time>2026-03-27T11:30:44Z</time></trkpt><trkpt lat="39.383347888953566" lon="16.038779876612477"><ele>181.5</ele><time>2026-03-27T11:30:45Z</time></trkpt><trkpt lat="39.38343118380799" lon="16.038751293241695"><ele>183.0</ele><time>2026-03-27T11:30:46Z</time></trkpt><trkpt lat="39.38351199090868" lon="16.038721746675662"><ele>184.5</ele><time>2026-03-27T11:30:47Z</time></trkpt><trkpt lat="39.383590974803916" lon="16.03869325137138"><ele>186.0</ele><time>2026-03-27T11:30:48Z</time></trkpt><trkpt lat="39.383667872027345" lon="16.038666397772246"><ele>186.0</ele><time>2026-03-27T11:30:49Z</time></trkpt><trkpt lat="39.38374268587885" lon="16.038639447942288"><ele>186.0</ele><time>2026-03-27T11:30:50Z</time></trkpt><trkpt lat="39.3838094769366" lon="16.03861776607358"><ele>186.0</ele><time>2026-03-27T11:30:51Z</time></trkpt><trkpt lat="39.38387221109172" lon="16.03860691985848"><ele>186.0</ele><time>2026-03-27T11:30:52Z</time></trkpt><trkpt lat="39.383982858681954" lon="16.038641482697205"><ele>186.0</ele><time>2026-03-27T11:30:54Z</time></trkpt><trkpt lat="39.38405288326661" lon="16.0387619174217"><ele>186.0</ele><time>2026-03-27T11:30:56Z</time></trkpt><trkpt lat="39.38410496543923" lon="16.038894021751712"><ele>186.0</ele><time>2026-03-27T11:30:58Z</time></trkpt><trkpt lat="39.38419918840884" lon="16.038957473035953"><ele>186.0</ele><time>2026-03-27T11:31:00Z</time></trkpt><trkpt lat="39.38432251803403" lon="16.038947964392275"><ele>186.0</ele><time>2026-03-27T11:31:02Z</time></trkpt><trkpt lat="39.38439060221839" lon="16.038928585289792"><ele>186.0</ele><time>2026-03-27T11:31:03Z</time></trkpt><trkpt lat="39.384462859088224" lon="16.03890666324658"><ele>186.0</ele><time>2026-03-27T11:31:04Z</time></trkpt><trkpt lat="39.38453910479735" lon="16.038870716721043"><ele>186.0</ele><time>2026-03-27T11:31:05Z</time></trkpt><trkpt lat="39.38461603738063" lon="16.038820779958414"><ele>186.0</ele><time>2026-03-27T11:31:06Z</time></trkpt><trkpt lat="39.38469183865104" lon="16.038764513319045"><ele>186.0</ele><time>2026-03-27T11:31:07Z</time></trkpt><trkpt lat="39.384764993193535" lon="16.038697927741833"><ele>186.0</ele><time>2026-03-27T11:31:08Z</time></trkpt><trkpt lat="39.38484116402374" lon="16.03863302884546"><ele>186.0</ele><time>2026-03-27T11:31:09Z</time></trkpt><trkpt lat="39.38491702737735" lon="16.038573677795604"><ele>186.0</ele><time>2026-03-27T11:31:10Z</time></trkpt><trkpt lat="39.38499329490904" lon="16.03850957509168"><ele>186.8</ele><time>2026-03-27T11:31:11Z</time></trkpt><trkpt lat="39.38507120225583" lon="16.038444171093758"><ele>187.60000000000002</ele><time>2026-03-27T11:31:12Z</time></trkpt><trkpt lat="39.38515394612898" lon="16.038388459119908"><ele>188.4</ele><time>2026-03-27T11:31:13Z</time></trkpt><trkpt lat="39.3852446558644" lon="16.03835196537703"><ele>189.2</ele><time>2026-03-27T11:31:14Z</time></trkpt><trkpt lat="39.38534141603593" lon="16.03833361652906"><ele>190.0</ele><time>2026-03-27T11:31:15Z</time></trkpt><trkpt lat="39.38543847594596" lon="16.038322277764706"><ele>191.4</ele><time>2026-03-27T11:31:16Z</time></trkpt><trkpt lat="39.385538410212135" lon="16.038306937700476"><ele>192.8</ele><time>2026-03-27T11:31:17Z</time></trkpt><trkpt lat="39.3856353050054" lon="16.03829658969255"><ele>194.2</ele><time>2026-03-27T11:31:18Z</time></trkpt><trkpt lat="39.3857320570747" lon="16.038287424630433"><ele>195.6</ele><time>2026-03-27T11:31:19Z</time></trkpt><trkpt lat="39.38582891414328" lon="16.0382773797099"><ele>197.0</ele><time>2026-03-27T11:31:20Z</time></trkpt><trkpt lat="39.38592782720193" lon="16.038262718676734"><ele>194.8</ele><time>2026-03-27T11:31:21Z</time></trkpt><trkpt lat="39.386026550109484" lon="16.03824744987829"><ele>192.6</ele><time>2026-03-27T11:31:22Z</time></trkpt><trkpt lat="39.38612369538829" lon="16.0382319204353"><ele>190.4</ele><time>2026-03-27T11:31:23Z</time></trkpt><trkpt lat="39.38622234895823" lon="16.03821186274785"><ele>188.20000000000002</ele><time>2026-03-27T11:31:24Z</time></trkpt><trkpt lat="39.38631740378849" lon="16.03818249579804"><ele>186.0</ele><time>2026-03-27T11:31:25Z</time></trkpt><trkpt lat="39.386408980231096" lon="16.03814328876613"><ele>186.0</ele><time>2026-03-27T11:31:26Z</time></trkpt><trkpt lat="39.38649761822516" lon="16.038095476781407"><ele>186.0</ele><time>2026-03-27T11:31:27Z</time></trkpt><trkpt lat="39.386585437119244" lon="16.03804099157935"><ele>186.0</ele><time>2026-03-27T11:31:28Z</time></trkpt><trkpt lat="39.386667946071846" lon="16.037977936925298"><ele>186.0</ele><time>2026-03-27T11:31:29Z</time></trkpt><trkpt lat="39.386745366460396" lon="16.0379066982235"><ele>186.0</ele><time>2026-03-27T11:31:30Z</time></trkpt><trkpt lat="39.38682081739103" lon="16.03783155035549"><ele>186.0</ele><time>2026-03-27T11:31:31Z</time></trkpt><trkpt lat="39.38689439231927" lon="16.037753670476313"><ele>186.0</ele><time>2026-03-27T11:31:32Z</time></trkpt><trkpt lat="39.386967014695045" lon="16.037675094593638"><ele>186.0</ele><time>2026-03-27T11:31:33Z</time></trkpt><trkpt lat="39.38703815788329" lon="16.03759610054124"><ele>186.0</ele><time>2026-03-27T11:31:34Z</time></trkpt><trkpt lat="39.38710623439216" lon="16.03751199987258"><ele>186.0</ele><time>2026-03-27T11:31:35Z</time></trkpt><trkpt lat="39.38716820915315" lon="16.03742637470902"><ele>187.0</ele><time>2026-03-27T11:31:36Z</time></trkpt><trkpt lat="39.387226623629765" lon="16.03733931647497"><ele>188.0</ele><time>2026-03-27T11:31:37Z</time></trkpt><trkpt lat="39.38728117667385" lon="16.03725353090701"><ele>189.0</ele><time>2026-03-27T11:31:38Z</time></trkpt><trkpt lat="39.387337369821296" lon="16.03716940054996"><ele>190.0</ele><time>2026-03-27T11:31:39Z</time></trkpt><trkpt lat="39.38739321986912" lon="16.037085015344505"><ele>191.0</ele><time>2026-03-27T11:31:40Z</time></trkpt><trkpt lat="39.387449492268836" lon="16.03699968877495"><ele>192.0</ele><time>2026-03-27T11:31:41Z</time></trkpt><trkpt lat="39.38750927410777" lon="16.036919545120927"><ele>192.0</ele><time>2026-03-27T11:31:42Z</time></trkpt><trkpt lat="39.38757678321926" lon="16.03685007323169"><ele>192.0</ele><time>2026-03-27T11:31:43Z</time></trkpt><trkpt lat="39.387651526076624" lon="16.036798085395343"><ele>192.0</ele><time>2026-03-27T11:31:44Z</time></trkpt><trkpt lat="39.387725764302886" lon="16.036748976178124"><ele>192.0</ele><time>2026-03-27T11:31:45Z</time></trkpt><trkpt lat="39.387793987117085" lon="16.036687028568245"><ele>192.0</ele><time>2026-03-27T11:31:46Z</time></trkpt><trkpt lat="39.38785042028646" lon="16.036613295607648"><ele>192.0</ele><time>2026-03-27T11:31:47Z</time></trkpt><trkpt lat="39.38790284930599" lon="16.03652521967148"><ele>193.0</ele><time>2026-03-27T11:31:48Z</time></trkpt><trkpt lat="39.38795094331512" lon="16.036439489865128"><ele>194.0</ele><time>2026-03-27T11:31:49Z</time></trkpt><trkpt lat="39.38799647619235" lon="16.036351194939577"><ele>195.0</ele><time>2026-03-27T11:31:50Z</time></trkpt><trkpt lat="39.38804359537858" lon="16.036266608595543"><ele>196.0</ele><time>2026-03-27T11:31:51Z</time></trkpt><trkpt lat="39.38809568427737" lon="16.036188716901215"><ele>197.0</ele><time>2026-03-27T11:31:52Z</time></trkpt><trkpt lat="39.38814328996299" lon="16.036108446133674"><ele>198.0</ele><time>2026-03-27T11:31:53Z</time></trkpt><trkpt lat="39.388182839912815" lon="16.03602642991437"><ele>198.0</ele><time>2026-03-27T11:31:54Z</time></trkpt><trkpt lat="39.38821460774937" lon="16.035943898249567"><ele>198.0</ele><time>2026-03-27T11:31:55Z</time></trkpt><trkpt lat="39.38824055531591" lon="16.035863077575964"><ele>198.0</ele><time>2026-03-27T11:31:56Z</time></trkpt><trkpt lat="39.38826044606062" lon="16.03578217779215"><ele>198.0</ele><time>2026-03-27T11:31:57Z</time></trkpt><trkpt lat="39.38827967424031" lon="16.03567522602468"><ele>198.0</ele><time>2026-03-27T11:31:59Z</time></trkpt><trkpt lat="39.388305361783246" lon="16.035594380934562"><ele>198.0</ele><time>2026-03-27T11:32:17Z</time></trkpt><trkpt lat="39.388332678257875" lon="16.03550408629497"><ele>198.0</ele><time>2026-03-27T11:32:19Z</time></trkpt><trkpt lat="39.38836903514155" lon="16.035398259517667"><ele>196.60000000000002</ele><time>2026-03-27T11:32:21Z</time></trkpt><trkpt lat="39.38841355068128" lon="16.035268059586617"><ele>195.20000000000002</ele><time>2026-03-27T11:32:23Z</time></trkpt><trkpt lat="39.388460056434184" lon="16.035113054564473"><ele>193.8</ele><time>2026-03-27T11:32:25Z</time></trkpt><trkpt lat="39.38848623187053" lon="16.035028461081023"><ele>192.4</ele><time>2026-03-27T11:32:26Z</time></trkpt><trkpt lat="39.38851197418504" lon="16.034940982862317"><ele>191.0</ele><time>2026-03-27T11:32:27Z</time></trkpt><trkpt lat="39.38853785496443" lon="16.034849017586048"><ele>189.16666666666666</ele><time>2026-03-27T11:32:28Z</time></trkpt><trkpt lat="39.388566483275234" lon="16.034751802402916"><ele>187.33333333333331</ele><time>2026-03-27T11:32:29Z</time></trkpt><trkpt lat="39.38859965155614" lon="16.03466213591713"><ele>185.5</ele><time>2026-03-27T11:32:30Z</time></trkpt><trkpt lat="39.38864092184474" lon="16.034567580823474"><ele>183.66666666666666</ele><time>2026-03-27T11:32:31Z</time></trkpt><trkpt lat="39.388684116637215" lon="16.03448341386984"><ele>181.83333333333334</ele><time>2026-03-27T11:32:32Z</time></trkpt><trkpt lat="39.38873682339883" lon="16.034400981359198"><ele>180.0</ele><time>2026-03-27T11:32:33Z</time></trkpt><trkpt lat="39.38879418371588" lon="16.034329539198904"><ele>182.16666666666666</ele><time>2026-03-27T11:32:34Z</time></trkpt><trkpt lat="39.388859370775116" lon="16.034275137259005"><ele>184.33333333333331</ele><time>2026-03-27T11:32:35Z</time></trkpt><trkpt lat="39.388933238564626" lon="16.03422985334667"><ele>186.5</ele><time>2026-03-27T11:32:36Z</time></trkpt><trkpt lat="39.389002899066824" lon="16.034192006407064"><ele>188.66666666666666</ele><time>2026-03-27T11:32:37Z</time></trkpt><trkpt lat="39.38907736605754" lon="16.034168199398547"><ele>190.83333333333331</ele><time>2026-03-27T11:32:38Z</time></trkpt><trkpt lat="39.3891547399959" lon="16.03415615890098"><ele>193.0</ele><time>2026-03-27T11:32:39Z</time></trkpt><trkpt lat="39.38923396342732" lon="16.034156333905365"><ele>192.99999999999997</ele><time>2026-03-27T11:32:40Z</time></trkpt><trkpt lat="39.389314557930454" lon="16.034164615581375"><ele>193.0</ele><time>2026-03-27T11:32:41Z</time></trkpt><trkpt lat="39.389395524491945" lon="16.034170484858482"><ele>193.0</ele><time>2026-03-27T11:32:42Z</time></trkpt><trkpt lat="39.38947490453889" lon="16.034170971418074"><ele>193.0</ele><time>2026-03-27T11:32:43Z</time></trkpt><trkpt lat="39.38955254250856" lon="16.034173291397344"><ele>192.99999999999997</ele><time>2026-03-27T11:32:44Z</time></trkpt><trkpt lat="39.3896302609128" lon="16.03417720347643"><ele>193.0</ele><time>2026-03-27T11:32:45Z</time></trkpt><trkpt lat="39.389703135967" lon="16.03418385188158"><ele>193.33333333333331</ele><time>2026-03-27T11:32:46Z</time></trkpt><trkpt lat="39.38977634492992" lon="16.034186195628035"><ele>193.66666666666666</ele><time>2026-03-27T11:32:47Z</time></trkpt><trkpt lat="39.38984367138751" lon="16.03419250476824"><ele>194.0</ele><time>2026-03-27T11:32:48Z</time></trkpt><trkpt lat="39.389962964268" lon="16.03416481068165"><ele>194.33333333333331</ele><time>2026-03-27T11:32:50Z</time></trkpt><trkpt lat="39.39003302935619" lon="16.034049404896514"><ele>194.66666666666666</ele><time>2026-03-27T11:32:52Z</time></trkpt><trkpt lat="39.390050954047176" lon="16.033970263939366"><ele>195.0</ele><time>2026-03-27T11:32:53Z</time></trkpt><trkpt lat="39.39006840096279" lon="16.033890063390697"><ele>194.14285714285714</ele><time>2026-03-27T11:32:54Z</time></trkpt><trkpt lat="39.39008254965859" lon="16.03380639490245"><ele>193.28571428571428</ele><time>2026-03-27T11:32:55Z</time></trkpt><trkpt lat="39.39009702561412" lon="16.033719639686957"><ele>192.42857142857144</ele><time>2026-03-27T11:32:56Z</time></trkpt><trkpt lat="39.39011573458265" lon="16.033627423529385"><ele>191.57142857142856</ele><time>2026-03-27T11:32:57Z</time></trkpt><trkpt lat="39.39013745336769" lon="16.033530345406476"><ele>190.71428571428572</ele><time>2026-03-27T11:32:58Z</time></trkpt><trkpt lat="39.39015918024128" lon="16.03343425434645"><ele>189.85714285714286</ele><time>2026-03-27T11:32:59Z</time></trkpt><trkpt lat="39.39018119102303" lon="16.03333435286138"><ele>189.0</ele><time>2026-03-27T11:33:00Z</time></trkpt><trkpt lat="39.39020210400763" lon="16.0332348870994"><ele>188.16666666666666</ele><time>2026-03-27T11:33:01Z</time></trkpt><trkpt lat="39.39022162298637" lon="16.03313785471804"><ele>187.33333333333334</ele><time>2026-03-27T11:33:02Z</time></trkpt><trkpt lat="39.39024179653381" lon="16.033041673191384"><ele>186.5</ele><time>2026-03-27T11:33:03Z</time></trkpt><trkpt lat="39.39026016747695" lon="16.032945465604772"><ele>185.66666666666669</ele><time>2026-03-27T11:33:04Z</time></trkpt><trkpt lat="39.3902808158677" lon="16.03285305506552"><ele>184.83333333333334</ele><time>2026-03-27T11:33:05Z</time></trkpt><trkpt lat="39.39030213217528" lon="16.032760113800045"><ele>184.0</ele><time>2026-03-27T11:33:06Z</time></trkpt><trkpt lat="39.390322414254825" lon="16.032666048975642"><ele>184.0</ele><time>2026-03-27T11:33:07Z</time></trkpt><trkpt lat="39.39033997790301" lon="16.032572666431918"><ele>184.0</ele><time>2026-03-27T11:33:08Z</time></trkpt><trkpt lat="39.39035524711528" lon="16.03248659782487"><ele>184.0</ele><time>2026-03-27T11:33:09Z</time></trkpt><trkpt lat="39.39037129900095" lon="16.032406566242088"><ele>184.0</ele><time>2026-03-27T11:33:10Z</time></trkpt><trkpt lat="39.39041425244861" lon="16.03227034172013"><ele>184.0</ele><time>2026-03-27T11:33:12Z</time></trkpt><trkpt lat="39.39050103806019" lon="16.03216268176669"><ele>184.0</ele><time>2026-03-27T11:33:14Z</time></trkpt><trkpt lat="39.39055368812062" lon="16.032107134952625"><ele>184.33333333333334</ele><time>2026-03-27T11:33:15Z</time></trkpt><trkpt lat="39.390610922488634" lon="16.03204886609157"><ele>184.66666666666669</ele><time>2026-03-27T11:33:16Z</time></trkpt><trkpt lat="39.39067025687843" lon="16.031986166142413"><ele>185.0</ele><time>2026-03-27T11:33:17Z</time></trkpt><trkpt lat="39.39073104438919" lon="16.031918351182625"><ele>185.33333333333334</ele><time>2026-03-27T11:33:18Z</time></trkpt><trkpt lat="39.390782416158466" lon="16.031838384715282"><ele>185.66666666666666</ele><time>2026-03-27T11:33:19Z</time></trkpt><trkpt lat="39.39083205129321" lon="16.03174901889336"><ele>186.0</ele><time>2026-03-27T11:33:20Z</time></trkpt><trkpt lat="39.390876569418765" lon="16.031656385031447"><ele>184.8</ele><time>2026-03-27T11:33:21Z</time></trkpt><trkpt lat="39.390921686095666" lon="16.03155934580437"><ele>183.60000000000002</ele><time>2026-03-27T11:33:22Z</time></trkpt><trkpt lat="39.39096700158103" lon="16.031460192867986"><ele>182.4</ele><time>2026-03-27T11:33:23Z</time></trkpt><trkpt lat="39.391013552563045" lon="16.03135895711197"><ele>181.2</ele><time>2026-03-27T11:33:24Z</time></trkpt><trkpt lat="39.39106138384626" lon="16.031258805868873"><ele>180.0</ele><time>2026-03-27T11:33:25Z</time></trkpt><trkpt lat="39.39110996202726" lon="16.03115812792075"><ele>180.0</ele><time>2026-03-27T11:33:26Z</time></trkpt><trkpt lat="39.39115721684958" lon="16.031055212851054"><ele>180.0</ele><time>2026-03-27T11:33:27Z</time></trkpt><trkpt lat="39.391205616955304" lon="16.030952801514847"><ele>180.0</ele><time>2026-03-27T11:33:28Z</time></trkpt><trkpt lat="39.391254859351506" lon="16.030853515759745"><ele>180.0</ele><time>2026-03-27T11:33:29Z</time></trkpt><trkpt lat="39.39130915730708" lon="16.030759839617577"><ele>180.0</ele><time>2026-03-27T11:33:30Z</time></trkpt><trkpt lat="39.391368195043746" lon="16.030678283259338"><ele>179.5</ele><time>2026-03-27T11:33:31Z</time></trkpt><trkpt lat="39.391432033041134" lon="16.0306003371393"><ele>179.0</ele><time>2026-03-27T11:33:32Z</time></trkpt><trkpt lat="39.39149807704602" lon="16.030527268894993"><ele>178.5</ele><time>2026-03-27T11:33:33Z</time></trkpt><trkpt lat="39.39156625548107" lon="16.03045646944672"><ele>178.0</ele><time>2026-03-27T11:33:34Z</time></trkpt><trkpt lat="39.391636052398546" lon="16.030385211425724"><ele>177.5</ele><time>2026-03-27T11:33:35Z</time></trkpt><trkpt lat="39.391707619403995" lon="16.030310714658736"><ele>177.0</ele><time>2026-03-27T11:33:36Z</time></trkpt><trkpt lat="39.39178017981613" lon="16.030231521532038"><ele>177.0</ele><time>2026-03-27T11:33:37Z</time></trkpt><trkpt lat="39.39184929605384" lon="16.030150831235932"><ele>177.0</ele><time>2026-03-27T11:33:38Z</time></trkpt><trkpt lat="39.39191471966346" lon="16.030061116618224"><ele>177.0</ele><time>2026-03-27T11:33:39Z</time></trkpt><trkpt lat="39.39197144716969" lon="16.02996448304444"><ele>177.0</ele><time>2026-03-27T11:33:40Z</time></trkpt><trkpt lat="39.39202211908943" lon="16.029860086953814"><ele>177.0</ele><time>2026-03-27T11:33:41Z</time></trkpt><trkpt lat="39.392074367887815" lon="16.029757935630265"><ele>176.2</ele><time>2026-03-27T11:33:42Z</time></trkpt><trkpt lat="39.39212903475368" lon="16.029661361697872"><ele>175.39999999999998</ele><time>2026-03-27T11:33:43Z</time></trkpt><trkpt lat="39.39219218283915" lon="16.029571384657327"><ele>174.60000000000002</ele><time>2026-03-27T11:33:44Z</time></trkpt><trkpt lat="39.39225999772221" lon="16.029481719428976"><ele>173.8</ele><time>2026-03-27T11:33:45Z</time></trkpt><trkpt lat="39.39232948990681" lon="16.0293910720862"><ele>173.0</ele><time>2026-03-27T11:33:46Z</time></trkpt><trkpt lat="39.39239755815875" lon="16.02930064664664"><ele>173.0</ele><time>2026-03-27T11:33:47Z</time></trkpt><trkpt lat="39.39246579910685" lon="16.02921199887399"><ele>173.0</ele><time>2026-03-27T11:33:48Z</time></trkpt><trkpt lat="39.39253657149963" lon="16.029124316827524"><ele>173.0</ele><time>2026-03-27T11:33:49Z</time></trkpt><trkpt lat="39.392606816448215" lon="16.02903817924219"><ele>173.0</ele><time>2026-03-27T11:33:50Z</time></trkpt><trkpt lat="39.392675280344264" lon="16.02895366197469"><ele>173.0</ele><time>2026-03-27T11:33:51Z</time></trkpt><trkpt lat="39.39274319821124" lon="16.028866571760062"><ele>172.60000000000002</ele><time>2026-03-27T11:33:52Z</time></trkpt><trkpt lat="39.39280890240871" lon="16.02877619214253"><ele>172.20000000000002</ele><time>2026-03-27T11:33:53Z</time></trkpt><trkpt lat="39.39287574062454" lon="16.028689960567313"><ele>171.8</ele><time>2026-03-27T11:33:54Z</time></trkpt><trkpt lat="39.392945414847645" lon="16.02861144609273"><ele>171.4</ele><time>2026-03-27T11:33:55Z</time></trkpt><trkpt lat="39.393021153775805" lon="16.02854326922648"><ele>171.0</ele><time>2026-03-27T11:33:56Z</time></trkpt><trkpt lat="39.393101759471826" lon="16.028485810677573"><ele>171.0</ele><time>2026-03-27T11:33:57Z</time></trkpt><trkpt lat="39.39318220909506" lon="16.028434108495347"><ele>171.0</ele><time>2026-03-27T11:33:58Z</time></trkpt><trkpt lat="39.39326045751134" lon="16.028385266256596"><ele>171.0</ele><time>2026-03-27T11:33:59Z</time></trkpt><trkpt lat="39.39333481892281" lon="16.028340742167654"><ele>171.0</ele><time>2026-03-27T11:34:00Z</time></trkpt><trkpt lat="39.393405952613776" lon="16.028296859965483"><ele>171.0</ele><time>2026-03-27T11:34:01Z</time></trkpt><trkpt lat="39.39347695162448" lon="16.028256226691052"><ele>171.0</ele><time>2026-03-27T11:34:02Z</time></trkpt><trkpt lat="39.39354376451273" lon="16.02822062254102"><ele>169.33333333333334</ele><time>2026-03-27T11:34:03Z</time></trkpt><trkpt lat="39.39361026753887" lon="16.028208516488448"><ele>167.66666666666666</ele><time>2026-03-27T11:34:04Z</time></trkpt><trkpt lat="39.39369439134051" lon="16.02816225528871"><ele>166.0</ele><time>2026-03-27T11:34:06Z</time></trkpt><trkpt lat="39.393632311137665" lon="16.028196394318567"><ele>164.33333333333331</ele><time>2026-03-27T11:34:30Z</time></trkpt><trkpt lat="39.39356739565319" lon="16.02820696128537"><ele>162.66666666666666</ele><time>2026-03-27T11:34:37Z</time></trkpt><trkpt lat="39.39350692780187" lon="16.02803639938949"><ele>161.0</ele><time>2026-03-27T11:34:38Z</time></trkpt><trkpt lat="39.39347063618009" lon="16.027964755720465"><ele>161.0</ele><time>2026-03-27T11:34:44Z</time></trkpt><trkpt lat="39.39344245944822" lon="16.02788466257633"><ele>161.0</ele><time>2026-03-27T11:34:56Z</time></trkpt><trkpt lat="39.39342288226304" lon="16.02779462186452"><ele>161.0</ele><time>2026-03-27T11:35:01Z</time></trkpt></trkseg></trk></gpx>